Time;durP1;ratioP1;P1;durP2;ratioP2;P2;SDS_P1;SDS_P2;PMS_P1;PMS_P2;Temp;Humidity;BMP_temperature;BMP_pressure;BME280_temperature;BME280_humidity;BME280_pressure;Samples;Min_cycle;Max_cycle;Signal;HPM_P1;HPM_P2
2023/10/04 00:04:18;;;;;;;1.65;1.10;;;;;;;;;;10324866;28;20046;-77
2023/10/04 00:09:22;;;;;;;1.33;0.98;;;;;;;;;;10307659;28;20050;-77
2023/10/04 00:14:25;;;;;;;2.45;1.20;;;;;;;;;;10315405;28;20062;-78
2023/10/04 00:19:31;;;;;;;1.50;0.93;;;;;;;;;;10333113;28;20123;-77
2023/10/04 00:24:34;;;;;;;3.80;1.20;;;;;;;;;;10334355;28;20053;-77
2023/10/04 00:29:38;;;;;;;1.60;0.95;;;;;;;;;;10331905;28;20039;-77
2023/10/04 00:34:42;;;;;;;2.08;1.40;;;;;;;;;;10315433;28;20042;-77
2023/10/04 00:39:46;;;;;;;3.28;1.33;;;;;;;;;;10342087;28;20034;-78
2023/10/04 00:44:49;;;;;;;2.97;1.30;;;;;;;;;;10320001;28;20129;-77
2023/10/04 00:49:55;;;;;;;2.50;1.30;;;;;;;;;;10332306;28;20419;-77
2023/10/04 00:54:58;;;;;;;2.08;1.40;;;;;;;;;;10310654;28;20820;-77
2023/10/04 01:00:09;;;;;;;2.88;1.65;;;;;;;;;;10331011;28;20054;-77
2023/10/04 01:05:15;;;;;;;2.25;1.10;;;;;;;;;;10314639;28;20538;-77
2023/10/04 01:10:21;;;;;;;2.08;1.30;;;;;;;;;;10313695;28;20125;-77
2023/10/04 01:15:30;;;;;;;3.70;1.15;;;;;;;;;;10307956;28;20046;-77
2023/10/04 01:20:37;;;;;;;2.60;1.02;;;;;;;;;;10313863;28;20045;-77
2023/10/04 01:25:42;;;;;;;1.48;0.80;;;;;;;;;;10311880;28;20058;-77
2023/10/04 01:30:47;;;;;;;1.10;0.77;;;;;;;;;;10327888;28;20058;-77
2023/10/04 01:35:53;;;;;;;1.63;0.90;;;;;;;;;;10315415;28;20414;-78
2023/10/04 02:44:40;;;;;;;;;;;;;;;;;;;;;
2023/10/04 03:51:37;;;;;;;1.55;1.17;;;;;;;;;;9849568;29;20046;-76
2023/10/04 03:57:35;;;;;;;2.75;1.40;;;;;;;;;;9940660;29;20126;-76
2023/10/04 04:03:27;;;;;;;1.67;1.15;;;;;;;;;;10029517;29;20053;-76
2023/10/04 04:30:53;;;;;;;2.08;1.20;;;;;;;;;;9890352;29;20071;-77
2023/10/04 05:36:17;;;;;;;3.22;1.20;;;;;;;;;;10257015;28;20072;-77
2023/10/04 05:48:49;;;;;;;1.00;0.90;;;;;;;;;;10308642;28;20166;-77
2023/10/04 06:00:56;;;;;;;;;;;;;;;;;;;;;
2023/10/04 06:07:22;;;;;;;1.77;0.80;;;;;;;;;;10295415;28;20050;-76
2023/10/04 06:18:47;;;;;;;2.17;1.02;;;;;;;;;;10311564;28;20117;-77
2023/10/04 06:25:02;;;;;;;1.05;0.80;;;;;;;;;;10312173;28;20120;-77
2023/10/04 06:30:59;;;;;;;2.80;0.80;;;;;;;;;;10309001;28;20046;-77
2023/10/04 06:36:38;;;;;;;3.33;0.60;;;;;;;;;;10318002;28;20051;-77
2023/10/04 06:42:18;;;;;;;1.15;0.65;;;;;;;;;;10310249;28;20047;-77
2023/10/04 06:53:23;;;;;;;1.48;0.73;;;;;;;;;;10315547;28;20053;-77
2023/10/04 07:04:46;;;;;;;4.07;0.80;;;;;;;;;;10316031;28;20276;-76
2023/10/04 07:42:33;;;;;;;4.93;1.30;;;;;;;;;;10232047;22;20049;-77
2023/10/04 07:47:37;;;;;;;4.70;1.23;;;;;;;;;;10379263;28;20045;-77
2023/10/04 07:52:41;;;;;;;5.85;1.25;;;;;;;;;;10393759;28;20069;-78
2023/10/04 07:57:46;;;;;;;3.88;1.10;;;;;;;;;;10403686;28;20498;-78
2023/10/04 08:02:51;;;;;;;2.40;0.93;;;;;;;;;;10401664;28;20045;-78
2023/10/04 08:07:55;;;;;;;2.83;1.10;;;;;;;;;;10398064;28;20050;-78
2023/10/04 08:13:01;;;;;;;4.85;1.92;;;;;;;;;;10397076;28;20048;-77
2023/10/04 08:18:05;;;;;;;3.03;1.10;;;;;;;;;;10401281;28;20135;-77
2023/10/04 08:23:08;;;;;;;6.47;1.60;;;;;;;;;;10397841;28;20124;-77
2023/10/04 08:28:13;;;;;;;7.72;2.33;;;;;;;;;;10367961;28;20544;-77
2023/10/04 08:33:18;;;;;;;5.80;1.60;;;;;;;;;;10406426;28;20076;-77
2023/10/04 08:38:22;;;;;;;3.40;1.60;;;;;;;;;;10399624;28;20497;-78
2023/10/04 08:43:27;;;;;;;4.13;1.33;;;;;;;;;;10398814;28;20042;-77
2023/10/04 08:48:30;;;;;;;4.63;2.42;;;;;;;;;;10394730;28;20119;-77
2023/10/04 08:53:50;;;;;;;6.53;2.40;;;;;;;;;;10395509;28;20104;-77
2023/10/04 08:58:56;;;;;;;8.27;2.88;;;;;;;;;;10410779;28;20045;-77
2023/10/04 09:04:01;;;;;;;5.45;2.17;;;;;;;;;;10411673;28;20514;-77
2023/10/04 09:09:05;;;;;;;4.15;1.80;;;;;;;;;;10382139;28;20601;-76
2023/10/04 09:14:10;;;;;;;4.40;1.67;;;;;;;;;;10409016;28;20033;-77
2023/10/04 09:19:17;;;;;;;5.38;2.30;;;;;;;;;;10411617;28;20045;-77
2023/10/04 09:24:20;;;;;;;5.47;2.15;;;;;;;;;;10401938;28;20045;-76
2023/10/04 09:29:32;;;;;;;7.07;2.38;;;;;;;;;;10406336;28;20060;-77
2023/10/04 09:34:35;;;;;;;6.82;2.35;;;;;;;;;;10410268;28;20128;-77
2023/10/04 09:39:39;;;;;;;4.97;1.90;;;;;;;;;;10399766;28;20453;-77
2023/10/04 09:44:44;;;;;;;5.47;2.10;;;;;;;;;;10385859;28;20045;-77
2023/10/04 09:49:51;;;;;;;7.68;2.72;;;;;;;;;;10373423;28;20599;-76
2023/10/04 09:54:54;;;;;;;7.25;2.55;;;;;;;;;;10404505;28;20125;-77
2023/10/04 10:00:00;;;;;;;10.13;2.60;;;;;;;;;;10391573;28;20049;-77
2023/10/04 10:05:05;;;;;;;7.17;2.77;;;;;;;;;;10391231;28;20081;-77
2023/10/04 10:10:13;;;;;;;3.15;1.38;;;;;;;;;;10406040;28;20050;-77
2023/10/04 10:15:21;;;;;;;3.70;1.42;;;;;;;;;;10407114;28;20091;-77
2023/10/04 10:20:24;;;;;;;;;;;;;;;;;;10410031;28;20057;-77
2023/10/04 10:25:28;;;;;;;4.55;2.05;;;;;;;;;;10400559;28;19921;-77
2023/10/04 10:30:34;;;;;;;6.85;2.78;;;;;;;;;;10402367;28;20052;-77
2023/10/04 10:35:59;;;;;;;5.03;1.75;;;;;;;;;;10396002;28;20443;-77
2023/10/04 10:41:03;;;;;;;5.37;2.00;;;;;;;;;;10400078;28;20063;-77
2023/10/04 10:46:29;;;;;;;6.40;3.08;;;;;;;;;;10402678;28;20044;-76
2023/10/04 10:51:43;;;;;;;4.18;2.38;;;;;;;;;;10398351;28;20422;-77
2023/10/04 10:56:46;;;;;;;6.95;3.13;;;;;;;;;;10390540;28;20069;-76
2023/10/04 11:01:51;;;;;;;6.68;2.45;;;;;;;;;;10394531;28;20523;-76
2023/10/04 11:06:55;;;;;;;4.38;2.30;;;;;;;;;;10399278;28;20045;-76
2023/10/04 11:11:58;;;;;;;7.47;2.88;;;;;;;;;;10403863;28;20059;-77
2023/10/04 11:17:04;;;;;;;4.45;2.00;;;;;;;;;;10403176;28;20533;-76
2023/10/04 11:22:08;;;;;;;;;;;;;;;;;;10397488;28;20049;-77
2023/10/04 11:27:12;;;;;;;7.05;3.72;;;;;;;;;;10383803;28;19948;-77
2023/10/04 11:32:18;;;;;;;7.43;2.72;;;;;;;;;;10402753;28;20053;-77
2023/10/04 11:37:21;;;;;;;5.50;2.80;;;;;;;;;;10392832;28;20053;-77
2023/10/04 11:42:26;;;;;;;5.45;2.58;;;;;;;;;;10403979;28;20057;-76
2023/10/04 11:47:32;;;;;;;4.53;2.15;;;;;;;;;;10400243;28;20045;-76
2023/10/04 11:52:36;;;;;;;5.43;2.42;;;;;;;;;;10389235;28;20169;-76
2023/10/04 11:57:39;;;;;;;9.00;2.95;;;;;;;;;;10405910;28;20041;-76
2023/10/04 12:02:44;;;;;;;6.80;2.80;;;;;;;;;;10402067;28;20056;-77
2023/10/04 12:07:48;;;;;;;5.20;2.40;;;;;;;;;;10408500;28;20050;-77
2023/10/04 12:12:55;;;;;;;6.15;2.80;;;;;;;;;;10395857;28;20045;-76
2023/10/04 12:18:01;;;;;;;10.85;3.28;;;;;;;;;;10400388;28;20056;-76
2023/10/04 12:23:05;;;;;;;6.85;2.50;;;;;;;;;;10400952;28;20124;-77
2023/10/04 12:28:09;;;;;;;7.28;2.47;;;;;;;;;;10403930;28;20053;-77
2023/10/04 12:33:14;;;;;;;7.40;2.95;;;;;;;;;;10409094;28;20100;-76
2023/10/04 12:38:17;;;;;;;14.85;3.78;;;;;;;;;;10400485;28;20054;-76
2023/10/04 12:43:21;;;;;;;6.85;3.80;;;;;;;;;;10410122;28;20065;-76
2023/10/04 12:48:26;;;;;;;5.88;3.00;;;;;;;;;;10395516;28;20121;-76
2023/10/04 12:53:30;;;;;;;7.68;3.53;;;;;;;;;;10400819;28;20041;-76
2023/10/04 12:58:34;;;;;;;6.15;3.00;;;;;;;;;;10406959;28;20100;-76
2023/10/04 13:03:38;;;;;;;10.80;3.60;;;;;;;;;;10397215;28;20052;-76
2023/10/04 13:08:42;;;;;;;7.72;3.88;;;;;;;;;;10394924;28;20050;-76
2023/10/04 13:13:45;;;;;;;9.98;4.10;;;;;;;;;;10391182;28;20522;-76
2023/10/04 13:18:51;;;;;;;8.50;3.95;;;;;;;;;;10401370;28;20138;-76
2023/10/04 13:23:55;;;;;;;6.20;3.20;;;;;;;;;;10397541;28;20061;-76
2023/10/04 13:28:58;;;;;;;6.82;3.55;;;;;;;;;;10391282;28;20038;-76
2023/10/04 13:34:05;;;;;;;5.70;3.15;;;;;;;;;;10394923;28;20049;-76
2023/10/04 13:39:10;;;;;;;10.68;4.10;;;;;;;;;;10392894;28;20591;-76
2023/10/04 13:50:30;;;;;;;8.15;3.65;;;;;;;;;;10323518;28;20065;-76
2023/10/04 14:01:26;;;;;;;7.60;3.50;;;;;;;;;;10309609;28;20094;-76
2023/10/04 14:06:52;;;;;;;9.32;3.63;;;;;;;;;;10320515;28;20042;-76
2023/10/04 14:11:56;;;;;;;6.38;3.03;;;;;;;;;;10345959;28;20092;-76
2023/10/04 14:17:04;;;;;;;4.43;2.22;;;;;;;;;;10359729;28;20695;-76
2023/10/04 14:22:19;;;;;;;4.03;2.40;;;;;;;;;;10339940;28;20064;-76
2023/10/04 14:27:22;;;;;;;6.60;3.47;;;;;;;;;;10336896;28;20054;-76
2023/10/04 14:32:26;;;;;;;7.05;3.60;;;;;;;;;;10356463;28;20141;-77
2023/10/04 14:37:50;;;;;;;10.43;4.20;;;;;;;;;;10342103;28;20058;-76
2023/10/04 14:43:40;;;;;;;10.85;4.57;;;;;;;;;;10344003;28;20057;-76
2023/10/04 14:49:20;;;;;;;8.00;3.30;;;;;;;;;;10256215;28;20065;-76
2023/10/04 14:54:29;;;;;;;10.40;4.22;;;;;;;;;;10349311;28;20088;-76
2023/10/04 14:59:58;;;;;;;8.63;3.80;;;;;;;;;;10332033;28;20050;-75
2023/10/04 15:05:20;;;;;;;5.40;2.63;;;;;;;;;;10316009;28;20133;-76
2023/10/04 15:10:25;;;;;;;4.97;2.88;;;;;;;;;;10297673;28;20280;-76
2023/10/04 15:27:40;;;;;;;6.07;3.10;;;;;;;;;;10282644;28;20123;-76
2023/10/04 15:32:47;;;;;;;5.30;2.95;;;;;;;;;;10344002;28;20101;-76
2023/10/04 15:38:01;;;;;;;6.75;3.20;;;;;;;;;;10360426;28;20053;-76
2023/10/04 15:43:54;;;;;;;6.63;2.78;;;;;;;;;;10348733;28;20062;-76
2023/10/04 15:49:19;;;;;;;6.38;3.38;;;;;;;;;;10358068;28;20066;-76
2023/10/04 15:54:42;;;;;;;8.60;3.50;;;;;;;;;;10335793;28;20124;-76
2023/10/04 16:00:38;;;;;;;8.98;3.55;;;;;;;;;;10339995;28;20050;-76
2023/10/04 16:06:11;;;;;;;6.38;2.70;;;;;;;;;;10345869;28;20406;-75
2023/10/04 16:12:01;;;;;;;7.85;3.80;;;;;;;;;;10334427;28;20053;-75
2023/10/04 16:17:33;;;;;;;8.90;3.13;;;;;;;;;;10348178;28;20494;-76
2023/10/04 16:23:24;;;;;;;10.20;3.97;;;;;;;;;;10348753;28;20052;-76
2023/10/04 16:29:36;;;;;;;7.82;3.25;;;;;;;;;;10346047;28;20046;-75
2023/10/04 16:35:10;;;;;;;6.88;3.28;;;;;;;;;;10322505;28;20054;-75
2023/10/04 16:40:39;;;;;;;;;;;;;;;;;;10307314;28;20120;-75
2023/10/04 16:46:00;;;;;;;7.10;3.08;;;;;;;;;;10341711;28;19931;-75
2023/10/04 16:51:28;;;;;;;4.10;2.25;;;;;;;;;;10349690;28;20131;-75
2023/10/04 16:57:04;;;;;;;4.88;2.38;;;;;;;;;;10319318;28;20056;-75
2023/10/04 17:02:53;;;;;;;4.60;2.10;;;;;;;;;;10350531;28;20054;-76
2023/10/04 17:28:58;;;;;;;5.40;2.40;;;;;;;;;;10012839;29;20689;-75
2023/10/04 17:41:29;;;;;;;3.80;1.98;;;;;;;;;;10048072;29;20079;-76
2023/10/04 17:53:57;;;;;;;5.35;1.75;;;;;;;;;;10303540;28;20046;-75
2023/10/04 18:06:18;;;;;;;5.20;2.38;;;;;;;;;;10316501;28;20509;-75
2023/10/04 19:40:43;;;;;;;5.82;2.90;;;;;;;;;;10358236;22;20050;-76
2023/10/04 19:45:48;;;;;;;4.47;2.53;;;;;;;;;;10348866;28;20050;-76
2023/10/04 19:50:52;;;;;;;4.07;2.72;;;;;;;;;;10375988;28;20042;-76
2023/10/04 19:55:56;;;;;;;5.00;2.30;;;;;;;;;;10387434;28;20136;-77
2023/10/04 20:01:01;;;;;;;6.68;2.95;;;;;;;;;;10386119;28;20708;-76
2023/10/04 20:06:09;;;;;;;4.13;2.80;;;;;;;;;;10392574;28;20525;-77
2023/10/04 20:11:12;;;;;;;4.47;2.53;;;;;;;;;;10395587;28;20049;-76
2023/10/04 20:16:17;;;;;;;4.50;2.58;;;;;;;;;;10395396;28;20076;-76
2023/10/04 20:21:20;;;;;;;5.55;2.38;;;;;;;;;;10387431;28;20073;-77
2023/10/04 20:26:24;;;;;;;6.20;3.03;;;;;;;;;;10394957;28;20057;-76
2023/10/04 20:31:30;;;;;;;5.97;2.67;;;;;;;;;;10409762;28;20124;-77
2023/10/04 20:36:33;;;;;;;4.40;2.27;;;;;;;;;;10381925;28;20458;-76
2023/10/04 20:41:36;;;;;;;4.18;2.42;;;;;;;;;;10407435;28;20781;-76
2023/10/04 20:46:41;;;;;;;6.93;2.67;;;;;;;;;;10408734;28;20058;-76
2023/10/04 20:51:45;;;;;;;5.80;3.30;;;;;;;;;;10394919;28;20049;-76
2023/10/04 20:56:48;;;;;;;4.85;2.75;;;;;;;;;;10393203;28;20053;-76
2023/10/04 21:01:53;;;;;;;6.93;2.97;;;;;;;;;;10401849;28;20586;-76
2023/10/04 21:06:56;;;;;;;3.58;1.52;;;;;;;;;;10412709;28;20053;-77
2023/10/04 21:11:59;;;;;;;5.28;2.42;;;;;;;;;;10390557;28;20054;-76
2023/10/04 21:17:05;;;;;;;4.47;2.63;;;;;;;;;;10395763;28;20111;-76
2023/10/04 21:22:08;;;;;;;4.70;2.30;;;;;;;;;;10386346;28;20418;-77
2023/10/04 21:27:12;;;;;;;6.35;2.20;;;;;;;;;;10397567;28;20708;-77
2023/10/04 21:32:23;;;;;;;3.70;2.03;;;;;;;;;;10406636;28;20085;-77
2023/10/04 21:37:33;;;;;;;4.13;2.45;;;;;;;;;;10404805;28;20152;-77
2023/10/04 21:42:37;;;;;;;3.65;1.98;;;;;;;;;;10393484;28;20145;-77
2023/10/04 21:47:48;;;;;;;3.75;2.10;;;;;;;;;;10395494;28;20049;-77
2023/10/04 21:52:51;;;;;;;4.32;2.28;;;;;;;;;;10400670;28;20161;-77
2023/10/04 21:57:54;;;;;;;5.30;2.38;;;;;;;;;;10393567;28;20055;-77
2023/10/04 22:02:59;;;;;;;3.70;1.73;;;;;;;;;;10404875;28;20046;-77
2023/10/04 22:08:02;;;;;;;4.20;1.95;;;;;;;;;;10385789;28;20131;-77
2023/10/04 22:13:07;;;;;;;4.78;2.35;;;;;;;;;;10380827;28;20042;-77
2023/10/04 22:18:12;;;;;;;5.63;2.42;;;;;;;;;;10401172;28;20084;-77
2023/10/04 22:23:16;;;;;;;3.40;1.80;;;;;;;;;;10401101;28;20046;-77
2023/10/04 22:28:20;;;;;;;4.60;2.20;;;;;;;;;;10401250;28;20049;-77
2023/10/04 22:33:30;;;;;;;4.65;1.92;;;;;;;;;;10403134;28;20045;-77
2023/10/04 22:38:35;;;;;;;4.88;2.30;;;;;;;;;;10390185;28;20058;-77
2023/10/04 22:43:38;;;;;;;6.03;2.30;;;;;;;;;;10392458;28;20383;-77
2023/10/04 22:48:43;;;;;;;4.18;2.35;;;;;;;;;;10385243;28;20047;-77
2023/10/04 22:53:46;;;;;;;5.15;1.88;;;;;;;;;;10395549;28;20490;-77
2023/10/04 22:58:49;;;;;;;4.93;2.05;;;;;;;;;;10399239;28;20042;-77
2023/10/04 23:03:55;;;;;;;4.07;2.28;;;;;;;;;;10406236;28;20055;-77
2023/10/04 23:08:59;;;;;;;4.68;2.35;;;;;;;;;;10401334;28;20045;-77
2023/10/04 23:14:04;;;;;;;5.05;2.38;;;;;;;;;;10384814;28;20042;-77
2023/10/04 23:19:15;;;;;;;4.45;2.50;;;;;;;;;;10396621;28;20121;-77
2023/10/04 23:24:20;;;;;;;6.00;2.80;;;;;;;;;;10397157;28;20533;-77
2023/10/04 23:29:23;;;;;;;7.63;2.60;;;;;;;;;;10388999;28;20238;-77
2023/10/04 23:34:30;;;;;;;6.35;2.95;;;;;;;;;;10392563;28;20630;-77
2023/10/04 23:39:39;;;;;;;5.13;2.72;;;;;;;;;;10385427;28;20144;-77
2023/10/04 23:44:43;;;;;;;6.40;2.40;;;;;;;;;;10382805;28;20055;-78
2023/10/04 23:49:49;;;;;;;3.78;1.70;;;;;;;;;;10386368;28;20030;-77
2023/10/04 23:54:55;;;;;;;5.72;2.33;;;;;;;;;;10371486;28;20060;-77
